sensor_id;sensor_type;location;lat;lon;timestamp;pressure;altitude;pressure_sealevel;temperature;humidity
43804;BME280;29430;52.924;-2.388;2023-02-14T00:03:25;100593.84;;;4.46;100.00
43804;BME280;29430;52.924;-2.388;2023-02-14T00:08:17;100602.06;;;4.44;100.00
43804;BME280;29430;52.924;-2.388;2023-02-14T00:13:09;100604.41;;;4.39;100.00
43804;BME280;29430;52.924;-2.388;2023-02-14T00:18:01;100617.31;;;4.36;100.00
43804;BME280;29430;52.924;-2.388;2023-02-14T00:22:54;100605.00;;;4.33;100.00
43804;BME280;29430;52.924;-2.388;2023-02-14T00:27:45;100606.16;;;4.30;100.00
43804;BME280;29430;52.924;-2.388;2023-02-14T00:32:39;100597.72;;;4.25;100.00
43804;BME280;29430;52.924;-2.388;2023-02-14T00:37:31;100599.03;;;4.21;100.00
43804;BME280;29430;52.924;-2.388;2023-02-14T00:42:23;100593.81;;;4.20;100.00
43804;BME280;29430;52.924;-2.388;2023-02-14T00:47:14;100587.09;;;4.16;100.00
43804;BME280;29430;52.924;-2.388;2023-02-14T00:52:06;100586.00;;;4.08;100.00
43804;BME280;29430;52.924;-2.388;2023-02-14T00:56:58;100578.41;;;4.04;100.00
43804;BME280;29430;52.924;-2.388;2023-02-14T01:01:50;100573.66;;;3.98;100.00
43804;BME280;29430;52.924;-2.388;2023-02-14T01:06:42;100572.56;;;3.90;100.00
43804;BME280;29430;52.924;-2.388;2023-02-14T01:11:36;100558.41;;;3.80;100.00
43804;BME280;29430;52.924;-2.388;2023-02-14T01:16:28;100560.69;;;3.75;100.00
43804;BME280;29430;52.924;-2.388;2023-02-14T01:21:29;100566.50;;;3.70;100.00
43804;BME280;29430;52.924;-2.388;2023-02-14T01:26:22;100567.69;;;3.68;100.00
43804;BME280;29430;52.924;-2.388;2023-02-14T01:31:17;100567.97;;;3.65;100.00
43804;BME280;29430;52.924;-2.388;2023-02-14T01:41:12;100566.59;;;3.61;100.00
43804;BME280;29430;52.924;-2.388;2023-02-14T01:46:04;100567.88;;;3.56;100.00
43804;BME280;29430;52.924;-2.388;2023-02-14T01:50:56;100561.81;;;3.54;100.00
43804;BME280;29430;52.924;-2.388;2023-02-14T01:55:59;100568.47;;;3.50;100.00
43804;BME280;29430;52.924;-2.388;2023-02-14T02:00:52;100577.53;;;3.49;100.00
43804;BME280;29430;52.924;-2.388;2023-02-14T02:05:57;100578.81;;;3.45;100.00
43804;BME280;29430;52.924;-2.388;2023-02-14T02:10:50;100584.47;;;3.42;100.00
43804;BME280;29430;52.924;-2.388;2023-02-14T02:42:00;100588.97;;;3.23;100.00
43804;BME280;29430;52.924;-2.388;2023-02-14T02:57:52;100570.41;;;3.12;100.00
43804;BME280;29430;52.924;-2.388;2023-02-14T03:02:50;100579.72;;;3.08;100.00
43804;BME280;29430;52.924;-2.388;2023-02-14T03:08:03;100569.44;;;3.03;100.00
43804;BME280;29430;52.924;-2.388;2023-02-14T03:33:46;100538.81;;;2.68;100.00
43804;BME280;29430;52.924;-2.388;2023-02-14T03:44:04;100524.22;;;2.53;100.00
43804;BME280;29430;52.924;-2.388;2023-02-14T03:49:02;100509.59;;;2.47;100.00
43804;BME280;29430;52.924;-2.388;2023-02-14T03:53:56;100532.41;;;2.42;100.00
43804;BME280;29430;52.924;-2.388;2023-02-14T03:58:52;100525.78;;;2.36;100.00
43804;BME280;29430;52.924;-2.388;2023-02-14T04:03:47;100512.16;;;2.29;100.00
43804;BME280;29430;52.924;-2.388;2023-02-14T04:08:39;100518.91;;;2.24;100.00
43804;BME280;29430;52.924;-2.388;2023-02-14T04:13:31;100512.47;;;2.17;100.00
43804;BME280;29430;52.924;-2.388;2023-02-14T04:18:23;100505.41;;;2.15;100.00
43804;BME280;29430;52.924;-2.388;2023-02-14T04:23:33;100496.72;;;2.13;100.00
43804;BME280;29430;52.924;-2.388;2023-02-14T04:28:25;100496.72;;;2.13;100.00
43804;BME280;29430;52.924;-2.388;2023-02-14T04:33:16;100511.34;;;2.09;100.00
43804;BME280;29430;52.924;-2.388;2023-02-14T04:38:08;100513.63;;;2.04;100.00
43804;BME280;29430;52.924;-2.388;2023-02-14T04:43:00;100509.25;;;2.03;100.00
43804;BME280;29430;52.924;-2.388;2023-02-14T04:47:52;100520.78;;;2.04;100.00
43804;BME280;29430;52.924;-2.388;2023-02-14T04:52:43;100505.72;;;2.03;100.00
43804;BME280;29430;52.924;-2.388;2023-02-14T04:57:35;100520.78;;;2.04;100.00
43804;BME280;29430;52.924;-2.388;2023-02-14T05:02:27;100524.88;;;2.08;100.00
43804;BME280;29430;52.924;-2.388;2023-02-14T05:07:19;100532.91;;;2.08;100.00
43804;BME280;29430;52.924;-2.388;2023-02-14T05:12:10;100541.34;;;2.13;100.00
43804;BME280;29430;52.924;-2.388;2023-02-14T05:17:02;100540.22;;;2.15;100.00
43804;BME280;29430;52.924;-2.388;2023-02-14T05:21:54;100535.56;;;2.18;100.00
43804;BME280;29430;52.924;-2.388;2023-02-14T05:26:46;100533.03;;;2.16;100.00
43804;BME280;29430;52.924;-2.388;2023-02-14T05:31:37;100535.25;;;2.21;100.00
43804;BME280;29430;52.924;-2.388;2023-02-14T05:36:29;100532.59;;;2.21;100.00
43804;BME280;29430;52.924;-2.388;2023-02-14T05:41:21;100536.97;;;2.22;100.00
43804;BME280;29430;52.924;-2.388;2023-02-14T05:46:14;100535.25;;;2.21;100.00
43804;BME280;29430;52.924;-2.388;2023-02-14T05:51:08;100544.16;;;2.21;100.00
43804;BME280;29430;52.924;-2.388;2023-02-14T05:56:00;100540.63;;;2.21;100.00
43804;BME280;29430;52.924;-2.388;2023-02-14T06:00:55;100552.47;;;2.18;100.00
43804;BME280;29430;52.924;-2.388;2023-02-14T06:05:50;100546.25;;;2.18;100.00
43804;BME280;29430;52.924;-2.388;2023-02-14T06:10:42;100541.03;;;2.16;100.00
43804;BME280;29430;52.924;-2.388;2023-02-14T06:15:35;100528.97;;;2.12;100.00
43804;BME280;29430;52.924;-2.388;2023-02-14T06:20:27;100523.91;;;2.09;100.00
43804;BME280;29430;52.924;-2.388;2023-02-14T06:25:20;100532.19;;;2.06;100.00
43804;BME280;29430;52.924;-2.388;2023-02-14T06:30:13;100531.63;;;2.02;100.00
43804;BME280;29430;52.924;-2.388;2023-02-14T06:35:05;100527.41;;;2.00;100.00
43804;BME280;29430;52.924;-2.388;2023-02-14T06:39:58;100541.63;;;2.00;100.00
43804;BME280;29430;52.924;-2.388;2023-02-14T06:44:49;100545.28;;;1.99;100.00
43804;BME280;29430;52.924;-2.388;2023-02-14T06:49:41;100544.31;;;2.00;100.00
43804;BME280;29430;52.924;-2.388;2023-02-14T06:54:33;100546.84;;;2.02;100.00
43804;BME280;29430;52.924;-2.388;2023-02-14T06:59:25;100554.44;;;2.06;100.00
43804;BME280;29430;52.924;-2.388;2023-02-14T07:04:16;100541.75;;;2.08;100.00
43804;BME280;29430;52.924;-2.388;2023-02-14T07:09:09;100550.38;;;2.12;100.00
43804;BME280;29430;52.924;-2.388;2023-02-14T07:14:00;100535.84;;;2.14;100.00
43804;BME280;29430;52.924;-2.388;2023-02-14T07:18:52;100548.94;;;2.18;100.00
43804;BME280;29430;52.924;-2.388;2023-02-14T07:23:44;100527.25;;;2.21;100.00
43804;BME280;29430;52.924;-2.388;2023-02-14T07:28:40;100553.84;;;2.22;100.00
43804;BME280;29430;52.924;-2.388;2023-02-14T07:33:35;100550.34;;;2.22;100.00
43804;BME280;29430;52.924;-2.388;2023-02-14T07:38:28;100554.72;;;2.23;100.00
43804;BME280;29430;52.924;-2.388;2023-02-14T07:43:20;100544.72;;;2.25;100.00
43804;BME280;29430;52.924;-2.388;2023-02-14T07:48:12;100553.44;;;2.27;100.00
43804;BME280;29430;52.924;-2.388;2023-02-14T07:53:04;100572.03;;;2.28;100.00
43804;BME280;29430;52.924;-2.388;2023-02-14T07:57:58;100588.22;;;2.27;100.00
43804;BME280;29430;52.924;-2.388;2023-02-14T08:02:50;100586.97;;;2.31;100.00
43804;BME280;29430;52.924;-2.388;2023-02-14T08:07:42;100579.78;;;2.31;100.00
43804;BME280;29430;52.924;-2.388;2023-02-14T08:12:34;100588.94;;;2.29;100.00
43804;BME280;29430;52.924;-2.388;2023-02-14T08:17:45;100597.53;;;2.32;100.00
43804;BME280;29430;52.924;-2.388;2023-02-14T08:22:36;100593.88;;;2.33;100.00
43804;BME280;29430;52.924;-2.388;2023-02-14T08:27:28;100594.44;;;2.37;100.00
43804;BME280;29430;52.924;-2.388;2023-02-14T08:32:20;100598.38;;;2.43;100.00
43804;BME280;29430;52.924;-2.388;2023-02-14T08:37:12;100598.78;;;2.48;100.00
43804;BME280;29430;52.924;-2.388;2023-02-14T08:42:04;100590.31;;;2.53;100.00
43804;BME280;29430;52.924;-2.388;2023-02-14T08:46:56;100593.41;;;2.58;100.00
43804;BME280;29430;52.924;-2.388;2023-02-14T08:51:48;100595.50;;;2.64;100.00
43804;BME280;29430;52.924;-2.388;2023-02-14T08:56:40;100593.25;;;2.69;100.00
43804;BME280;29430;52.924;-2.388;2023-02-14T09:01:32;100589.56;;;2.70;100.00
43804;BME280;29430;52.924;-2.388;2023-02-14T09:06:26;100588.88;;;2.68;100.00
43804;BME280;29430;52.924;-2.388;2023-02-14T09:11:21;100571.69;;;2.71;100.00
43804;BME280;29430;52.924;-2.388;2023-02-14T09:16:14;100594.63;;;2.73;100.00
43804;BME280;29430;52.924;-2.388;2023-02-14T09:21:14;100578.69;;;2.72;100.00
43804;BME280;29430;52.924;-2.388;2023-02-14T09:26:08;100571.94;;;2.77;100.00
43804;BME280;29430;52.924;-2.388;2023-02-14T09:31:18;100590.38;;;2.80;100.00
43804;BME280;29430;52.924;-2.388;2023-02-14T09:36:11;100586.72;;;2.81;100.00
43804;BME280;29430;52.924;-2.388;2023-02-14T09:41:14;100587.97;;;2.87;100.00
43804;BME280;29430;52.924;-2.388;2023-02-14T09:46:14;100580.88;;;2.96;100.00
43804;BME280;29430;52.924;-2.388;2023-02-14T09:51:22;100596.38;;;3.02;100.00
43804;BME280;29430;52.924;-2.388;2023-02-14T09:56:36;100592.56;;;3.04;100.00
43804;BME280;29430;52.924;-2.388;2023-02-14T10:01:49;100595.94;;;3.07;100.00
43804;BME280;29430;52.924;-2.388;2023-02-14T10:06:56;100584.63;;;3.13;100.00
43804;BME280;29430;52.924;-2.388;2023-02-14T10:11:49;100583.59;;;3.23;100.00
43804;BME280;29430;52.924;-2.388;2023-02-14T10:16:48;100595.81;;;3.36;100.00
43804;BME280;29430;52.924;-2.388;2023-02-14T10:21:44;100609.88;;;3.48;100.00
43804;BME280;29430;52.924;-2.388;2023-02-14T10:26:39;100595.94;;;3.62;100.00
43804;BME280;29430;52.924;-2.388;2023-02-14T10:31:56;100580.88;;;3.79;100.00
43804;BME280;29430;52.924;-2.388;2023-02-14T10:58:05;100589.06;;;4.13;100.00
43804;BME280;29430;52.924;-2.388;2023-02-14T11:03:05;100575.03;;;4.20;100.00
43804;BME280;29430;52.924;-2.388;2023-02-14T11:07:58;100555.59;;;4.26;100.00
43804;BME280;29430;52.924;-2.388;2023-02-14T11:12:50;100553.84;;;4.35;100.00
43804;BME280;29430;52.924;-2.388;2023-02-14T11:17:42;100558.25;;;4.44;100.00
43804;BME280;29430;52.924;-2.388;2023-02-14T11:22:34;100556.19;;;4.56;100.00
43804;BME280;29430;52.924;-2.388;2023-02-14T11:27:26;100548.16;;;4.64;100.00
43804;BME280;29430;52.924;-2.388;2023-02-14T11:32:26;100564.00;;;4.75;100.00
43804;BME280;29430;52.924;-2.388;2023-02-14T11:42:13;100553.38;;;5.00;100.00
43804;BME280;29430;52.924;-2.388;2023-02-14T11:47:26;100537.50;;;5.15;100.00
43804;BME280;29430;52.924;-2.388;2023-02-14T11:52:18;100538.88;;;5.27;100.00
43804;BME280;29430;52.924;-2.388;2023-02-14T11:57:32;100545.47;;;5.41;100.00
43804;BME280;29430;52.924;-2.388;2023-02-14T12:02:30;100535.88;;;5.47;100.00
43804;BME280;29430;52.924;-2.388;2023-02-14T12:12:21;100531.03;;;5.50;100.00
43804;BME280;29430;52.924;-2.388;2023-02-14T12:17:23;100514.75;;;5.52;100.00
43804;BME280;29430;52.924;-2.388;2023-02-14T12:22:22;100498.44;;;5.53;100.00
43804;BME280;29430;52.924;-2.388;2023-02-14T12:37:33;100490.53;;;6.51;100.00
43804;BME280;29430;52.924;-2.388;2023-02-14T12:47:35;100487.50;;;7.02;100.00
43804;BME280;29430;52.924;-2.388;2023-02-14T13:08:33;100461.25;;;7.50;100.00
43804;BME280;29430;52.924;-2.388;2023-02-14T13:18:35;100457.88;;;7.48;100.00
43804;BME280;29430;52.924;-2.388;2023-02-14T13:23:37;100455.22;;;7.63;100.00
43804;BME280;29430;52.924;-2.388;2023-02-14T13:28:30;100465.50;;;7.67;100.00
43804;BME280;29430;52.924;-2.388;2023-02-14T13:38:26;100430.34;;;7.76;100.00
43804;BME280;29430;52.924;-2.388;2023-02-14T13:43:47;100424.03;;;7.83;100.00
43804;BME280;29430;52.924;-2.388;2023-02-14T13:48:40;100435.13;;;7.88;100.00
43804;BME280;29430;52.924;-2.388;2023-02-14T13:58:24;100425.72;;;7.99;100.00
43804;BME280;29430;52.924;-2.388;2023-02-14T14:18:35;100416.63;;;8.15;97.16
43804;BME280;29430;52.924;-2.388;2023-02-14T14:28:22;100395.75;;;8.24;96.70
43804;BME280;29430;52.924;-2.388;2023-02-14T14:38:15;100383.84;;;8.33;94.87
43804;BME280;29430;52.924;-2.388;2023-02-14T14:43:25;100400.47;;;8.45;94.62
43804;BME280;29430;52.924;-2.388;2023-02-14T14:48:45;100398.09;;;8.57;96.21
43804;BME280;29430;52.924;-2.388;2023-02-14T14:53:43;100395.69;;;8.62;93.76
43804;BME280;29430;52.924;-2.388;2023-02-14T14:58:38;100396.16;;;8.66;93.29
43804;BME280;29430;52.924;-2.388;2023-02-14T15:03:31;100396.59;;;8.69;93.29
43804;BME280;29430;52.924;-2.388;2023-02-14T15:18:41;100380.66;;;8.74;93.00
43804;BME280;29430;52.924;-2.388;2023-02-14T15:23:33;100392.13;;;8.76;93.33
43804;BME280;29430;52.924;-2.388;2023-02-14T15:28:31;100387.91;;;8.74;92.39
43804;BME280;29430;52.924;-2.388;2023-02-14T15:33:24;100373.75;;;8.72;92.08
43804;BME280;29430;52.924;-2.388;2023-02-14T15:38:16;100376.41;;;8.65;91.03
43804;BME280;29430;52.924;-2.388;2023-02-14T15:43:30;100369.03;;;8.59;91.55
43804;BME280;29430;52.924;-2.388;2023-02-14T15:48:26;100362.97;;;8.57;91.93
43804;BME280;29430;52.924;-2.388;2023-02-14T15:58:28;100371.63;;;8.52;91.73
43804;BME280;29430;52.924;-2.388;2023-02-14T16:03:25;100365.59;;;8.50;91.79
43804;BME280;29430;52.924;-2.388;2023-02-14T16:08:33;100365.97;;;8.47;92.51
43804;BME280;29430;52.924;-2.388;2023-02-14T16:13:30;100362.97;;;8.42;93.02
43804;BME280;29430;52.924;-2.388;2023-02-14T16:18:45;100367.16;;;8.30;93.09
43804;BME280;29430;52.924;-2.388;2023-02-14T16:23:41;100362.50;;;8.23;93.38
43804;BME280;29430;52.924;-2.388;2023-02-14T16:28:35;100341.63;;;8.17;93.77
43804;BME280;29430;52.924;-2.388;2023-02-14T16:33:29;100346.28;;;8.09;93.92
43804;BME280;29430;52.924;-2.388;2023-02-14T16:38:22;100347.22;;;8.01;94.34
43804;BME280;29430;52.924;-2.388;2023-02-14T16:43:16;100343.75;;;7.92;94.76
43804;BME280;29430;52.924;-2.388;2023-02-14T16:48:09;100353.81;;;7.83;94.49
43804;BME280;29430;52.924;-2.388;2023-02-14T16:53:01;100357.63;;;7.74;95.01
43804;BME280;29430;52.924;-2.388;2023-02-14T16:57:52;100342.50;;;7.65;94.99
43804;BME280;29430;52.924;-2.388;2023-02-14T17:02:45;100343.06;;;7.60;94.53
43804;BME280;29430;52.924;-2.388;2023-02-14T17:07:37;100345.28;;;7.57;93.80
43804;BME280;29430;52.924;-2.388;2023-02-14T17:12:33;100343.28;;;7.50;93.88
43804;BME280;29430;52.924;-2.388;2023-02-14T17:17:27;100351.75;;;7.47;93.06
43804;BME280;29430;52.924;-2.388;2023-02-14T17:22:19;100351.09;;;7.45;92.05
43804;BME280;29430;52.924;-2.388;2023-02-14T17:27:11;100338.81;;;7.43;92.00
43804;BME280;29430;52.924;-2.388;2023-02-14T17:32:03;100349.59;;;7.43;91.50
43804;BME280;29430;52.924;-2.388;2023-02-14T17:36:55;100346.63;;;7.38;91.93
43804;BME280;29430;52.924;-2.388;2023-02-14T17:41:47;100349.31;;;7.38;91.96
43804;BME280;29430;52.924;-2.388;2023-02-14T17:46:39;100348.84;;;7.34;92.37
43804;BME280;29430;52.924;-2.388;2023-02-14T17:51:31;100359.66;;;7.34;92.15
43804;BME280;29430;52.924;-2.388;2023-02-14T17:56:24;100354.25;;;7.34;92.29
43804;BME280;29430;52.924;-2.388;2023-02-14T18:01:19;100358.31;;;7.30;93.78
43804;BME280;29430;52.924;-2.388;2023-02-14T18:06:12;100351.47;;;7.19;96.16
43804;BME280;29430;52.924;-2.388;2023-02-14T18:11:09;100355.97;;;7.04;97.65
43804;BME280;29430;52.924;-2.388;2023-02-14T18:16:13;100353.53;;;6.94;98.88
43804;BME280;29430;52.924;-2.388;2023-02-14T18:21:07;100352.06;;;6.83;100.00
43804;BME280;29430;52.924;-2.388;2023-02-14T18:26:01;100349.41;;;6.75;100.00
43804;BME280;29430;52.924;-2.388;2023-02-14T18:31:00;100339.69;;;6.66;100.00
43804;BME280;29430;52.924;-2.388;2023-02-14T18:35:52;100333.16;;;6.60;100.00
43804;BME280;29430;52.924;-2.388;2023-02-14T18:40:44;100333.34;;;6.58;100.00
43804;BME280;29430;52.924;-2.388;2023-02-14T18:45:37;100327.44;;;6.55;100.00
43804;BME280;29430;52.924;-2.388;2023-02-14T18:50:29;100316.34;;;6.50;100.00
43804;BME280;29430;52.924;-2.388;2023-02-14T18:55:21;100324.31;;;6.43;100.00
43804;BME280;29430;52.924;-2.388;2023-02-14T19:00:13;100313.38;;;6.36;100.00
43804;BME280;29430;52.924;-2.388;2023-02-14T19:05:06;100309.38;;;6.32;100.00
43804;BME280;29430;52.924;-2.388;2023-02-14T19:10:04;100307.22;;;6.27;100.00
43804;BME280;29430;52.924;-2.388;2023-02-14T19:14:56;100299.97;;;6.28;100.00
43804;BME280;29430;52.924;-2.388;2023-02-14T19:19:50;100288.00;;;6.31;100.00
43804;BME280;29430;52.924;-2.388;2023-02-14T19:24:43;100284.09;;;6.33;100.00
43804;BME280;29430;52.924;-2.388;2023-02-14T19:29:35;100270.78;;;6.40;100.00
43804;BME280;29430;52.924;-2.388;2023-02-14T19:34:30;100288.44;;;6.42;100.00
43804;BME280;29430;52.924;-2.388;2023-02-14T19:39:22;100285.91;;;6.41;100.00
43804;BME280;29430;52.924;-2.388;2023-02-14T19:44:16;100277.47;;;6.44;100.00
43804;BME280;29430;52.924;-2.388;2023-02-14T19:49:11;100268.75;;;6.42;100.00
43804;BME280;29430;52.924;-2.388;2023-02-14T19:54:06;100278.88;;;6.40;100.00
43804;BME280;29430;52.924;-2.388;2023-02-14T19:59:00;100268.91;;;6.40;100.00
43804;BME280;29430;52.924;-2.388;2023-02-14T20:03:58;100267.91;;;6.41;100.00
43804;BME280;29430;52.924;-2.388;2023-02-14T20:08:50;100270.09;;;6.38;100.00
43804;BME280;29430;52.924;-2.388;2023-02-14T20:13:43;100258.84;;;6.34;100.00
43804;BME280;29430;52.924;-2.388;2023-02-14T20:18:34;100262.38;;;6.35;100.00
43804;BME280;29430;52.924;-2.388;2023-02-14T20:23:26;100256.31;;;6.33;100.00
43804;BME280;29430;52.924;-2.388;2023-02-14T20:28:18;100246.09;;;6.28;100.00
43804;BME280;29430;52.924;-2.388;2023-02-14T20:33:10;100246.44;;;6.25;100.00
43804;BME280;29430;52.924;-2.388;2023-02-14T20:38:02;100244.91;;;6.22;100.00
43804;BME280;29430;52.924;-2.388;2023-02-14T20:42:57;100248.31;;;6.16;100.00
43804;BME280;29430;52.924;-2.388;2023-02-14T20:47:49;100239.09;;;6.11;100.00
43804;BME280;29430;52.924;-2.388;2023-02-14T20:52:41;100230.88;;;6.04;100.00
43804;BME280;29430;52.924;-2.388;2023-02-14T20:57:33;100242.00;;;6.01;100.00
43804;BME280;29430;52.924;-2.388;2023-02-14T21:02:24;100229.03;;;5.96;100.00
43804;BME280;29430;52.924;-2.388;2023-02-14T21:07:16;100235.78;;;5.92;100.00
43804;BME280;29430;52.924;-2.388;2023-02-14T21:12:15;100243.19;;;5.90;100.00
43804;BME280;29430;52.924;-2.388;2023-02-14T21:17:13;100225.91;;;5.84;100.00
43804;BME280;29430;52.924;-2.388;2023-02-14T21:22:05;100228.59;;;5.84;100.00
43804;BME280;29430;52.924;-2.388;2023-02-14T21:26:56;100225.91;;;5.84;100.00
43804;BME280;29430;52.924;-2.388;2023-02-14T21:31:48;100216.97;;;5.84;100.00
43804;BME280;29430;52.924;-2.388;2023-02-14T21:36:40;100213.63;;;5.82;100.00
43804;BME280;29430;52.924;-2.388;2023-02-14T21:41:33;100220.34;;;5.78;100.00
43804;BME280;29430;52.924;-2.388;2023-02-14T21:46:28;100227.13;;;5.73;100.00
43804;BME280;29430;52.924;-2.388;2023-02-14T21:51:22;100219.22;;;5.72;100.00
43804;BME280;29430;52.924;-2.388;2023-02-14T21:56:16;100225.72;;;5.78;100.00
43804;BME280;29430;52.924;-2.388;2023-02-14T22:01:15;100211.28;;;5.79;100.00
43804;BME280;29430;52.924;-2.388;2023-02-14T22:06:07;100199.97;;;5.83;100.00
43804;BME280;29430;52.924;-2.388;2023-02-14T22:11:08;100197.94;;;5.85;100.00
43804;BME280;29430;52.924;-2.388;2023-02-14T22:16:01;100194.78;;;5.82;100.00
43804;BME280;29430;52.924;-2.388;2023-02-14T22:21:01;100189.09;;;5.77;100.00
43804;BME280;29430;52.924;-2.388;2023-02-14T22:25:54;100181.88;;;5.69;100.00
43804;BME280;29430;52.924;-2.388;2023-02-14T22:30:45;100185.09;;;5.64;100.00
43804;BME280;29430;52.924;-2.388;2023-02-14T22:35:37;100192.00;;;5.59;100.00
43804;BME280;29430;52.924;-2.388;2023-02-14T22:40:29;100193.19;;;5.56;100.00
43804;BME280;29430;52.924;-2.388;2023-02-14T22:45:21;100193.00;;;5.57;100.00
43804;BME280;29430;52.924;-2.388;2023-02-14T22:50:12;100184.59;;;5.61;100.00
43804;BME280;29430;52.924;-2.388;2023-02-14T22:55:05;100166.09;;;5.57;100.00
43804;BME280;29430;52.924;-2.388;2023-02-14T22:59:57;100176.19;;;5.55;100.00
43804;BME280;29430;52.924;-2.388;2023-02-14T23:04:48;100183.28;;;5.48;100.00
43804;BME280;29430;52.924;-2.388;2023-02-14T23:09:41;100172.72;;;5.38;100.00
43804;BME280;29430;52.924;-2.388;2023-02-14T23:14:34;100171.22;;;5.36;100.00
43804;BME280;29430;52.924;-2.388;2023-02-14T23:19:44;100162.66;;;5.32;100.00
43804;BME280;29430;52.924;-2.388;2023-02-14T23:24:57;100149.56;;;5.29;100.00
43804;BME280;29430;52.924;-2.388;2023-02-14T23:29:50;100139.13;;;5.26;100.00
43804;BME280;29430;52.924;-2.388;2023-02-14T23:34:43;100140.00;;;5.27;100.00
43804;BME280;29430;52.924;-2.388;2023-02-14T23:39:36;100131.25;;;5.25;100.00
43804;BME280;29430;52.924;-2.388;2023-02-14T23:44:28;100132.94;;;5.26;100.00
43804;BME280;29430;52.924;-2.388;2023-02-14T23:49:22;100134.78;;;5.25;100.00
43804;BME280;29430;52.924;-2.388;2023-02-14T23:54:15;100130.41;;;5.24;100.00
43804;BME280;29430;52.924;-2.388;2023-02-14T23:59:08;100127.91;;;5.23;100.00
